Terminal Aerodrome Forecast
Issued by NWS Sioux Falls, SD

Home | Current Version | Previous Version | Graphics & Text | Print | Product List | Glossary Off
Versions: 1 2 3 4 5 6 7 8 9 10 11 12 13 14 15

000
FTUS43 KFSD 022330
TAFFSD
TAF
KFSD 022330Z 0300/0324 17012G17KT P6SM OVC060
     FM030800 17013KT 3SM -FZDZSN OVC015
     FM031200 18006KT 2SM -SN OVC009
     FM031500 28013G18KT 1 1/2SM -SN OVC015
     FM031700 34028G38KT 3/4SM -SN BLSN OVC020
     FM031900 34025G35KT P6SM BKN030=

USA.gov is the U.S. government's official web portal to all federal, state and local government web resources and services.